Terminal Aerodrome Forecast
Issued by NWS

Home | Current Version | Previous Version | Text Only | Print | Product List | Glossary On
Versions: 1 2 3 4 5 6 7 8 9 10 11 12 13 14
267
FTUS42 TJSJ 232031 AAA
TAFNCM
TAF AMD
TNCM 232031Z 2321/2418 09009KT P6SM -SHRA SCT016 SCT045
     FM232200 09009KT P6SM VCSH FEW018
     FM241300 09012KT P6SM VCSH SCT022=

USA.gov is the U.S. government's official web portal to all federal, state and local government web resources and services.